sensor_id;sensor_type;location;lat;lon;timestamp;P1;durP1;ratioP1;P2;durP2;ratioP2
61096;SDS011;46977;50.936;6.908;2022-10-24T00:01:39;11.85;;;2.15;;
61096;SDS011;46977;50.936;6.908;2022-10-24T00:04:41;8.52;;;2.38;;
61096;SDS011;46977;50.936;6.908;2022-10-24T00:07:43;12.70;;;3.20;;
61096;SDS011;46977;50.936;6.908;2022-10-24T00:10:47;6.15;;;2.00;;
61096;SDS011;46977;50.936;6.908;2022-10-24T00:13:49;12.75;;;2.92;;
61096;SDS011;46977;50.936;6.908;2022-10-24T00:16:53;6.88;;;2.80;;
61096;SDS011;46977;50.936;6.908;2022-10-24T00:19:55;7.57;;;2.53;;
61096;SDS011;46977;50.936;6.908;2022-10-24T00:22:59;10.35;;;3.65;;
61096;SDS011;46977;50.936;6.908;2022-10-24T00:26:01;14.52;;;2.90;;
61096;SDS011;46977;50.936;6.908;2022-10-24T00:29:05;7.55;;;2.22;;
61096;SDS011;46977;50.936;6.908;2022-10-24T00:32:09;12.93;;;2.58;;
61096;SDS011;46977;50.936;6.908;2022-10-24T00:35:11;12.93;;;2.97;;
61096;SDS011;46977;50.936;6.908;2022-10-24T00:38:13;9.93;;;2.20;;
61096;SDS011;46977;50.936;6.908;2022-10-24T00:41:16;7.60;;;2.60;;
61096;SDS011;46977;50.936;6.908;2022-10-24T00:44:20;8.45;;;2.35;;
61096;SDS011;46977;50.936;6.908;2022-10-24T00:47:25;8.43;;;2.97;;
61096;SDS011;46977;50.936;6.908;2022-10-24T00:50:28;7.60;;;2.42;;
61096;SDS011;46977;50.936;6.908;2022-10-24T00:53:31;12.95;;;3.10;;
61096;SDS011;46977;50.936;6.908;2022-10-24T00:56:35;5.97;;;3.17;;
61096;SDS011;46977;50.936;6.908;2022-10-24T00:59:39;9.05;;;2.70;;
61096;SDS011;46977;50.936;6.908;2022-10-24T01:02:44;12.13;;;3.20;;
61096;SDS011;46977;50.936;6.908;2022-10-24T01:09:22;8.82;;;2.67;;
61096;SDS011;46977;50.936;6.908;2022-10-24T01:12:36;6.32;;;2.08;;
61096;SDS011;46977;50.936;6.908;2022-10-24T01:15:48;8.23;;;2.08;;
61096;SDS011;46977;50.936;6.908;2022-10-24T01:18:55;9.45;;;2.70;;
61096;SDS011;46977;50.936;6.908;2022-10-24T01:22:04;9.30;;;3.05;;
61096;SDS011;46977;50.936;6.908;2022-10-24T01:25:10;6.38;;;2.03;;
61096;SDS011;46977;50.936;6.908;2022-10-24T01:28:16;5.35;;;1.92;;
61096;SDS011;46977;50.936;6.908;2022-10-24T01:31:24;12.35;;;2.17;;
61096;SDS011;46977;50.936;6.908;2022-10-24T01:34:29;6.07;;;2.35;;
61096;SDS011;46977;50.936;6.908;2022-10-24T01:37:34;11.43;;;2.60;;
61096;SDS011;46977;50.936;6.908;2022-10-24T01:40:42;5.82;;;1.58;;
61096;SDS011;46977;50.936;6.908;2022-10-24T01:43:50;6.25;;;2.30;;
61096;SDS011;46977;50.936;6.908;2022-10-24T01:46:56;7.70;;;1.90;;
61096;SDS011;46977;50.936;6.908;2022-10-24T01:50:01;8.75;;;2.30;;
61096;SDS011;46977;50.936;6.908;2022-10-24T01:53:07;8.00;;;1.92;;
61096;SDS011;46977;50.936;6.908;2022-10-24T01:56:10;7.10;;;2.40;;
61096;SDS011;46977;50.936;6.908;2022-10-24T02:02:47;12.45;;;2.63;;
61096;SDS011;46977;50.936;6.908;2022-10-24T02:05:52;8.02;;;2.78;;
61096;SDS011;46977;50.936;6.908;2022-10-24T02:08:56;4.22;;;2.03;;
61096;SDS011;46977;50.936;6.908;2022-10-24T02:12:02;11.40;;;1.92;;
61096;SDS011;46977;50.936;6.908;2022-10-24T02:15:05;6.45;;;2.20;;
61096;SDS011;46977;50.936;6.908;2022-10-24T02:18:12;9.98;;;2.03;;
61096;SDS011;46977;50.936;6.908;2022-10-24T02:21:16;6.85;;;2.22;;
61096;SDS011;46977;50.936;6.908;2022-10-24T02:24:25;13.00;;;2.22;;
61096;SDS011;46977;50.936;6.908;2022-10-24T02:27:31;12.85;;;2.63;;
61096;SDS011;46977;50.936;6.908;2022-10-24T02:30:36;10.77;;;2.33;;
61096;SDS011;46977;50.936;6.908;2022-10-24T02:33:42;10.05;;;2.17;;
61096;SDS011;46977;50.936;6.908;2022-10-24T02:36:45;10.30;;;2.17;;
61096;SDS011;46977;50.936;6.908;2022-10-24T02:39:49;13.90;;;2.97;;
61096;SDS011;46977;50.936;6.908;2022-10-24T02:42:53;9.43;;;2.88;;
61096;SDS011;46977;50.936;6.908;2022-10-24T02:45:57;8.43;;;2.45;;
61096;SDS011;46977;50.936;6.908;2022-10-24T02:49:01;8.63;;;2.35;;
61096;SDS011;46977;50.936;6.908;2022-10-24T02:52:04;9.05;;;2.95;;
61096;SDS011;46977;50.936;6.908;2022-10-24T02:55:07;7.55;;;2.70;;
61096;SDS011;46977;50.936;6.908;2022-10-24T02:58:10;6.60;;;1.85;;
61096;SDS011;46977;50.936;6.908;2022-10-24T03:01:12;7.28;;;2.53;;
61096;SDS011;46977;50.936;6.908;2022-10-24T03:04:16;10.45;;;2.30;;
61096;SDS011;46977;50.936;6.908;2022-10-24T03:07:18;9.80;;;1.90;;
61096;SDS011;46977;50.936;6.908;2022-10-24T03:10:21;7.10;;;1.80;;
61096;SDS011;46977;50.936;6.908;2022-10-24T03:13:23;6.03;;;1.85;;
61096;SDS011;46977;50.936;6.908;2022-10-24T03:16:25;11.32;;;2.33;;
61096;SDS011;46977;50.936;6.908;2022-10-24T03:19:30;8.07;;;2.22;;
61096;SDS011;46977;50.936;6.908;2022-10-24T03:22:32;12.40;;;1.95;;
61096;SDS011;46977;50.936;6.908;2022-10-24T03:25:35;7.13;;;1.60;;
61096;SDS011;46977;50.936;6.908;2022-10-24T03:28:37;8.55;;;1.75;;
61096;SDS011;46977;50.936;6.908;2022-10-24T03:31:40;9.35;;;2.20;;
61096;SDS011;46977;50.936;6.908;2022-10-24T03:34:43;7.57;;;1.77;;
61096;SDS011;46977;50.936;6.908;2022-10-24T03:37:46;12.27;;;1.77;;
61096;SDS011;46977;50.936;6.908;2022-10-24T03:40:48;8.02;;;1.80;;
61096;SDS011;46977;50.936;6.908;2022-10-24T03:43:54;4.22;;;2.20;;
61096;SDS011;46977;50.936;6.908;2022-10-24T03:46:57;6.40;;;1.38;;
61096;SDS011;46977;50.936;6.908;2022-10-24T03:50:01;8.40;;;1.70;;
61096;SDS011;46977;50.936;6.908;2022-10-24T03:53:04;7.40;;;1.20;;
61096;SDS011;46977;50.936;6.908;2022-10-24T03:56:06;8.70;;;1.83;;
61096;SDS011;46977;50.936;6.908;2022-10-24T03:59:09;7.32;;;1.58;;
61096;SDS011;46977;50.936;6.908;2022-10-24T04:02:11;8.10;;;1.60;;
61096;SDS011;46977;50.936;6.908;2022-10-24T04:05:16;6.82;;;1.60;;
61096;SDS011;46977;50.936;6.908;2022-10-24T04:08:19;5.60;;;1.70;;
61096;SDS011;46977;50.936;6.908;2022-10-24T04:11:21;6.85;;;1.63;;
61096;SDS011;46977;50.936;6.908;2022-10-24T04:14:23;6.32;;;1.60;;
61096;SDS011;46977;50.936;6.908;2022-10-24T04:17:26;6.57;;;1.58;;
61096;SDS011;46977;50.936;6.908;2022-10-24T04:20:30;7.30;;;1.20;;
61096;SDS011;46977;50.936;6.908;2022-10-24T04:23:32;5.47;;;1.45;;
61096;SDS011;46977;50.936;6.908;2022-10-24T04:26:39;6.22;;;1.23;;
61096;SDS011;46977;50.936;6.908;2022-10-24T04:29:41;10.82;;;1.58;;
61096;SDS011;46977;50.936;6.908;2022-10-24T04:32:44;3.35;;;1.15;;
61096;SDS011;46977;50.936;6.908;2022-10-24T04:35:48;6.07;;;1.33;;
61096;SDS011;46977;50.936;6.908;2022-10-24T04:38:51;4.22;;;0.98;;
61096;SDS011;46977;50.936;6.908;2022-10-24T04:41:54;5.43;;;1.40;;
61096;SDS011;46977;50.936;6.908;2022-10-24T04:44:56;3.60;;;1.08;;
61096;SDS011;46977;50.936;6.908;2022-10-24T04:47:59;6.18;;;1.25;;
61096;SDS011;46977;50.936;6.908;2022-10-24T04:51:02;6.38;;;1.60;;
61096;SDS011;46977;50.936;6.908;2022-10-24T04:54:06;3.70;;;1.25;;
61096;SDS011;46977;50.936;6.908;2022-10-24T04:57:09;8.65;;;1.63;;
61096;SDS011;46977;50.936;6.908;2022-10-24T05:00:13;2.72;;;1.20;;
61096;SDS011;46977;50.936;6.908;2022-10-24T05:03:16;4.35;;;1.10;;
61096;SDS011;46977;50.936;6.908;2022-10-24T05:06:20;6.40;;;1.13;;
61096;SDS011;46977;50.936;6.908;2022-10-24T05:09:22;4.68;;;0.98;;
61096;SDS011;46977;50.936;6.908;2022-10-24T05:12:25;5.45;;;1.20;;
61096;SDS011;46977;50.936;6.908;2022-10-24T05:15:28;4.97;;;1.33;;
61096;SDS011;46977;50.936;6.908;2022-10-24T05:18:31;3.97;;;0.93;;
61096;SDS011;46977;50.936;6.908;2022-10-24T05:21:35;3.42;;;0.80;;
61096;SDS011;46977;50.936;6.908;2022-10-24T05:24:37;6.57;;;1.15;;
61096;SDS011;46977;50.936;6.908;2022-10-24T05:27:40;4.10;;;0.88;;
61096;SDS011;46977;50.936;6.908;2022-10-24T05:30:42;4.72;;;1.33;;
61096;SDS011;46977;50.936;6.908;2022-10-24T05:33:45;6.18;;;1.05;;
61096;SDS011;46977;50.936;6.908;2022-10-24T05:36:48;9.73;;;1.30;;
61096;SDS011;46977;50.936;6.908;2022-10-24T05:39:51;3.30;;;0.82;;
61096;SDS011;46977;50.936;6.908;2022-10-24T05:42:53;6.85;;;1.20;;
61096;SDS011;46977;50.936;6.908;2022-10-24T05:45:56;5.93;;;1.38;;
61096;SDS011;46977;50.936;6.908;2022-10-24T05:48:59;4.82;;;0.80;;
61096;SDS011;46977;50.936;6.908;2022-10-24T05:52:02;5.07;;;1.23;;
61096;SDS011;46977;50.936;6.908;2022-10-24T05:55:05;4.05;;;1.30;;
61096;SDS011;46977;50.936;6.908;2022-10-24T05:58:09;3.38;;;1.23;;
61096;SDS011;46977;50.936;6.908;2022-10-24T06:01:11;5.80;;;1.10;;
61096;SDS011;46977;50.936;6.908;2022-10-24T06:04:14;7.15;;;1.45;;
61096;SDS011;46977;50.936;6.908;2022-10-24T06:07:18;4.45;;;1.23;;
61096;SDS011;46977;50.936;6.908;2022-10-24T06:10:20;5.60;;;1.50;;
61096;SDS011;46977;50.936;6.908;2022-10-24T06:13:23;7.30;;;1.55;;
61096;SDS011;46977;50.936;6.908;2022-10-24T06:16:25;6.65;;;1.00;;
61096;SDS011;46977;50.936;6.908;2022-10-24T06:19:31;5.82;;;1.35;;
61096;SDS011;46977;50.936;6.908;2022-10-24T06:22:35;3.88;;;1.00;;
61096;SDS011;46977;50.936;6.908;2022-10-24T06:25:38;6.45;;;0.90;;
61096;SDS011;46977;50.936;6.908;2022-10-24T06:28:41;4.72;;;1.30;;
61096;SDS011;46977;50.936;6.908;2022-10-24T06:31:44;4.80;;;1.65;;
61096;SDS011;46977;50.936;6.908;2022-10-24T06:34:46;3.42;;;0.98;;
61096;SDS011;46977;50.936;6.908;2022-10-24T06:37:50;4.40;;;1.17;;
61096;SDS011;46977;50.936;6.908;2022-10-24T06:40:53;2.08;;;0.90;;
61096;SDS011;46977;50.936;6.908;2022-10-24T06:43:55;4.28;;;1.05;;
61096;SDS011;46977;50.936;6.908;2022-10-24T06:46:58;4.70;;;1.10;;
61096;SDS011;46977;50.936;6.908;2022-10-24T06:50:00;7.15;;;1.10;;
61096;SDS011;46977;50.936;6.908;2022-10-24T06:53:04;9.52;;;1.42;;
61096;SDS011;46977;50.936;6.908;2022-10-24T06:56:07;2.78;;;1.10;;
61096;SDS011;46977;50.936;6.908;2022-10-24T06:59:09;5.68;;;1.08;;
61096;SDS011;46977;50.936;6.908;2022-10-24T07:02:12;7.93;;;1.70;;
61096;SDS011;46977;50.936;6.908;2022-10-24T07:05:16;8.02;;;1.50;;
61096;SDS011;46977;50.936;6.908;2022-10-24T07:08:20;5.50;;;1.17;;
61096;SDS011;46977;50.936;6.908;2022-10-24T07:11:22;8.98;;;1.17;;
61096;SDS011;46977;50.936;6.908;2022-10-24T07:14:25;5.85;;;1.10;;
61096;SDS011;46977;50.936;6.908;2022-10-24T07:17:27;6.25;;;1.20;;
61096;SDS011;46977;50.936;6.908;2022-10-24T07:20:30;8.95;;;0.90;;
61096;SDS011;46977;50.936;6.908;2022-10-24T07:23:34;7.30;;;1.40;;
61096;SDS011;46977;50.936;6.908;2022-10-24T07:26:37;2.53;;;0.85;;
61096;SDS011;46977;50.936;6.908;2022-10-24T07:29:40;5.55;;;1.27;;
61096;SDS011;46977;50.936;6.908;2022-10-24T07:32:42;6.60;;;1.05;;
61096;SDS011;46977;50.936;6.908;2022-10-24T07:35:45;6.25;;;1.27;;
61096;SDS011;46977;50.936;6.908;2022-10-24T07:38:50;6.82;;;0.90;;
61096;SDS011;46977;50.936;6.908;2022-10-24T07:41:53;6.85;;;1.05;;
61096;SDS011;46977;50.936;6.908;2022-10-24T07:44:55;6.95;;;1.20;;
61096;SDS011;46977;50.936;6.908;2022-10-24T07:47:58;12.15;;;1.00;;
61096;SDS011;46977;50.936;6.908;2022-10-24T07:51:03;7.80;;;1.05;;
61096;SDS011;46977;50.936;6.908;2022-10-24T07:54:07;4.93;;;0.98;;
61096;SDS011;46977;50.936;6.908;2022-10-24T07:57:10;3.97;;;0.85;;
61096;SDS011;46977;50.936;6.908;2022-10-24T08:00:13;6.15;;;1.40;;
61096;SDS011;46977;50.936;6.908;2022-10-24T08:03:16;5.95;;;1.08;;
61096;SDS011;46977;50.936;6.908;2022-10-24T08:06:20;5.03;;;1.10;;
61096;SDS011;46977;50.936;6.908;2022-10-24T08:09:25;6.97;;;0.73;;
61096;SDS011;46977;50.936;6.908;2022-10-24T08:12:27;4.50;;;0.90;;
61096;SDS011;46977;50.936;6.908;2022-10-24T08:15:30;3.30;;;0.65;;
61096;SDS011;46977;50.936;6.908;2022-10-24T08:18:32;2.55;;;0.70;;
61096;SDS011;46977;50.936;6.908;2022-10-24T08:21:40;4.18;;;0.85;;
61096;SDS011;46977;50.936;6.908;2022-10-24T08:24:44;4.10;;;0.60;;
61096;SDS011;46977;50.936;6.908;2022-10-24T08:27:46;6.53;;;1.00;;
61096;SDS011;46977;50.936;6.908;2022-10-24T08:30:55;6.57;;;0.68;;
61096;SDS011;46977;50.936;6.908;2022-10-24T08:33:58;5.80;;;0.70;;
61096;SDS011;46977;50.936;6.908;2022-10-24T08:37:01;5.07;;;0.77;;
61096;SDS011;46977;50.936;6.908;2022-10-24T08:40:07;3.58;;;0.60;;
61096;SDS011;46977;50.936;6.908;2022-10-24T08:43:13;3.97;;;0.95;;
61096;SDS011;46977;50.936;6.908;2022-10-24T08:46:22;5.97;;;0.63;;
61096;SDS011;46977;50.936;6.908;2022-10-24T08:49:39;5.38;;;0.88;;
61096;SDS011;46977;50.936;6.908;2022-10-24T08:52:51;7.15;;;0.80;;
61096;SDS011;46977;50.936;6.908;2022-10-24T08:55:59;6.13;;;0.90;;
61096;SDS011;46977;50.936;6.908;2022-10-24T08:59:02;7.60;;;0.90;;
61096;SDS011;46977;50.936;6.908;2022-10-24T09:02:11;5.63;;;1.10;;
61096;SDS011;46977;50.936;6.908;2022-10-24T09:05:19;4.68;;;0.70;;
61096;SDS011;46977;50.936;6.908;2022-10-24T09:08:26;6.15;;;1.08;;
61096;SDS011;46977;50.936;6.908;2022-10-24T09:11:35;7.45;;;1.00;;
61096;SDS011;46977;50.936;6.908;2022-10-24T09:14:43;10.30;;;1.20;;
61096;SDS011;46977;50.936;6.908;2022-10-24T09:17:46;9.43;;;1.00;;
61096;SDS011;46977;50.936;6.908;2022-10-24T09:20:49;4.47;;;0.95;;
61096;SDS011;46977;50.936;6.908;2022-10-24T09:23:53;7.10;;;0.98;;
61096;SDS011;46977;50.936;6.908;2022-10-24T09:26:57;8.85;;;1.70;;
61096;SDS011;46977;50.936;6.908;2022-10-24T09:30:03;7.57;;;1.10;;
61096;SDS011;46977;50.936;6.908;2022-10-24T09:33:19;8.07;;;1.00;;
61096;SDS011;46977;50.936;6.908;2022-10-24T09:36:27;9.15;;;1.45;;
61096;SDS011;46977;50.936;6.908;2022-10-24T09:39:31;11.32;;;1.38;;
61096;SDS011;46977;50.936;6.908;2022-10-24T09:42:37;7.07;;;1.00;;
61096;SDS011;46977;50.936;6.908;2022-10-24T09:45:40;11.85;;;1.23;;
61096;SDS011;46977;50.936;6.908;2022-10-24T09:49:02;7.15;;;1.00;;
61096;SDS011;46977;50.936;6.908;2022-10-24T09:52:18;9.50;;;0.88;;
61096;SDS011;46977;50.936;6.908;2022-10-24T09:55:24;7.88;;;1.05;;
61096;SDS011;46977;50.936;6.908;2022-10-24T09:58:30;13.20;;;1.48;;
61096;SDS011;46977;50.936;6.908;2022-10-24T10:01:36;16.42;;;1.42;;
61096;SDS011;46977;50.936;6.908;2022-10-24T10:04:39;6.22;;;1.10;;
61096;SDS011;46977;50.936;6.908;2022-10-24T10:07:42;8.65;;;1.38;;
61096;SDS011;46977;50.936;6.908;2022-10-24T10:10:56;11.88;;;1.48;;
61096;SDS011;46977;50.936;6.908;2022-10-24T10:14:04;8.13;;;1.15;;
61096;SDS011;46977;50.936;6.908;2022-10-24T10:17:21;18.92;;;1.58;;
61096;SDS011;46977;50.936;6.908;2022-10-24T10:20:27;12.63;;;1.05;;
61096;SDS011;46977;50.936;6.908;2022-10-24T10:23:33;12.38;;;1.27;;
61096;SDS011;46977;50.936;6.908;2022-10-24T10:26:41;10.32;;;0.75;;
61096;SDS011;46977;50.936;6.908;2022-10-24T10:29:46;8.07;;;0.85;;
61096;SDS011;46977;50.936;6.908;2022-10-24T10:36:12;5.80;;;0.80;;
61096;SDS011;46977;50.936;6.908;2022-10-24T10:39:21;12.63;;;1.92;;
61096;SDS011;46977;50.936;6.908;2022-10-24T10:42:32;10.95;;;0.93;;
61096;SDS011;46977;50.936;6.908;2022-10-24T10:45:39;10.95;;;0.90;;
61096;SDS011;46977;50.936;6.908;2022-10-24T10:48:47;12.32;;;0.93;;
61096;SDS011;46977;50.936;6.908;2022-10-24T10:51:57;6.10;;;0.93;;
61096;SDS011;46977;50.936;6.908;2022-10-24T10:55:08;11.48;;;1.75;;
61096;SDS011;46977;50.936;6.908;2022-10-24T10:58:18;9.25;;;0.90;;
61096;SDS011;46977;50.936;6.908;2022-10-24T11:01:29;8.38;;;1.00;;
61096;SDS011;46977;50.936;6.908;2022-10-24T11:04:36;9.18;;;0.98;;
61096;SDS011;46977;50.936;6.908;2022-10-24T11:07:42;11.88;;;0.70;;
61096;SDS011;46977;50.936;6.908;2022-10-24T11:10:48;9.93;;;0.63;;
61096;SDS011;46977;50.936;6.908;2022-10-24T11:13:53;6.88;;;0.57;;
61096;SDS011;46977;50.936;6.908;2022-10-24T11:17:02;14.40;;;1.75;;
61096;SDS011;46977;50.936;6.908;2022-10-24T11:20:13;9.48;;;0.80;;
61096;SDS011;46977;50.936;6.908;2022-10-24T11:23:20;8.27;;;0.90;;
61096;SDS011;46977;50.936;6.908;2022-10-24T11:26:25;8.50;;;1.02;;
61096;SDS011;46977;50.936;6.908;2022-10-24T11:29:32;4.68;;;0.55;;
61096;SDS011;46977;50.936;6.908;2022-10-24T11:32:39;7.03;;;1.15;;
61096;SDS011;46977;50.936;6.908;2022-10-24T11:35:58;9.32;;;1.20;;
61096;SDS011;46977;50.936;6.908;2022-10-24T11:39:05;12.02;;;1.38;;
61096;SDS011;46977;50.936;6.908;2022-10-24T11:42:14;8.18;;;0.63;;
61096;SDS011;46977;50.936;6.908;2022-10-24T11:45:19;14.45;;;1.17;;
61096;SDS011;46977;50.936;6.908;2022-10-24T11:48:26;7.97;;;1.75;;
61096;SDS011;46977;50.936;6.908;2022-10-24T11:51:32;6.15;;;1.20;;
61096;SDS011;46977;50.936;6.908;2022-10-24T11:54:38;3.35;;;0.77;;
61096;SDS011;46977;50.936;6.908;2022-10-24T11:57:44;11.02;;;1.58;;
61096;SDS011;46977;50.936;6.908;2022-10-24T12:04:22;10.38;;;1.00;;
61096;SDS011;46977;50.936;6.908;2022-10-24T12:07:49;10.60;;;1.08;;
61096;SDS011;46977;50.936;6.908;2022-10-24T12:11:18;8.75;;;1.23;;
61096;SDS011;46977;50.936;6.908;2022-10-24T12:14:34;7.40;;;0.73;;
61096;SDS011;46977;50.936;6.908;2022-10-24T12:17:52;10.88;;;1.60;;
61096;SDS011;46977;50.936;6.908;2022-10-24T12:21:03;9.65;;;1.10;;
61096;SDS011;46977;50.936;6.908;2022-10-24T12:24:16;9.75;;;1.58;;
61096;SDS011;46977;50.936;6.908;2022-10-24T12:27:25;11.05;;;0.82;;
61096;SDS011;46977;50.936;6.908;2022-10-24T12:30:30;11.27;;;0.93;;
61096;SDS011;46977;50.936;6.908;2022-10-24T12:33:34;8.68;;;0.60;;
61096;SDS011;46977;50.936;6.908;2022-10-24T12:43:42;7.63;;;1.25;;
61096;SDS011;46977;50.936;6.908;2022-10-24T12:46:52;14.43;;;1.00;;
61096;SDS011;46977;50.936;6.908;2022-10-24T12:49:55;10.57;;;0.95;;
61096;SDS011;46977;50.936;6.908;2022-10-24T12:53:04;7.28;;;0.82;;
61096;SDS011;46977;50.936;6.908;2022-10-24T12:59:23;8.82;;;0.82;;
61096;SDS011;46977;50.936;6.908;2022-10-24T13:05:55;9.40;;;1.27;;
61096;SDS011;46977;50.936;6.908;2022-10-24T13:09:10;9.20;;;0.63;;
61096;SDS011;46977;50.936;6.908;2022-10-24T13:12:24;7.97;;;1.05;;
61096;SDS011;46977;50.936;6.908;2022-10-24T13:15:40;7.43;;;0.90;;
61096;SDS011;46977;50.936;6.908;2022-10-24T13:18:51;4.80;;;0.40;;
61096;SDS011;46977;50.936;6.908;2022-10-24T13:21:59;6.70;;;0.77;;
61096;SDS011;46977;50.936;6.908;2022-10-24T13:25:20;11.30;;;0.70;;
61096;SDS011;46977;50.936;6.908;2022-10-24T13:28:37;13.82;;;1.00;;
61096;SDS011;46977;50.936;6.908;2022-10-24T13:31:44;9.07;;;0.98;;
61096;SDS011;46977;50.936;6.908;2022-10-24T13:34:51;7.38;;;1.00;;
61096;SDS011;46977;50.936;6.908;2022-10-24T13:37:54;8.20;;;1.25;;
61096;SDS011;46977;50.936;6.908;2022-10-24T13:41:03;8.50;;;0.60;;
61096;SDS011;46977;50.936;6.908;2022-10-24T13:44:08;6.85;;;0.80;;
61096;SDS011;46977;50.936;6.908;2022-10-24T13:47:20;5.47;;;0.70;;
61096;SDS011;46977;50.936;6.908;2022-10-24T13:50:25;5.68;;;0.70;;
61096;SDS011;46977;50.936;6.908;2022-10-24T13:53:30;10.13;;;1.23;;
61096;SDS011;46977;50.936;6.908;2022-10-24T13:56:37;12.52;;;1.83;;
61096;SDS011;46977;50.936;6.908;2022-10-24T13:59:40;5.32;;;0.52;;
61096;SDS011;46977;50.936;6.908;2022-10-24T14:02:43;8.15;;;1.27;;
61096;SDS011;46977;50.936;6.908;2022-10-24T14:05:47;4.82;;;0.85;;
61096;SDS011;46977;50.936;6.908;2022-10-24T14:08:51;6.53;;;0.60;;
61096;SDS011;46977;50.936;6.908;2022-10-24T14:12:09;6.40;;;0.70;;
61096;SDS011;46977;50.936;6.908;2022-10-24T14:15:20;5.53;;;0.60;;
61096;SDS011;46977;50.936;6.908;2022-10-24T14:18:23;6.32;;;0.60;;
61096;SDS011;46977;50.936;6.908;2022-10-24T14:21:25;5.72;;;0.60;;
61096;SDS011;46977;50.936;6.908;2022-10-24T14:24:28;6.63;;;0.57;;
61096;SDS011;46977;50.936;6.908;2022-10-24T14:27:32;5.65;;;0.63;;
61096;SDS011;46977;50.936;6.908;2022-10-24T14:30:36;6.85;;;0.60;;
61096;SDS011;46977;50.936;6.908;2022-10-24T14:33:40;8.65;;;1.08;;
61096;SDS011;46977;50.936;6.908;2022-10-24T14:36:44;6.32;;;0.70;;
61096;SDS011;46977;50.936;6.908;2022-10-24T14:39:48;5.70;;;1.08;;
61096;SDS011;46977;50.936;6.908;2022-10-24T14:42:54;4.32;;;0.60;;
61096;SDS011;46977;50.936;6.908;2022-10-24T14:49:34;6.20;;;0.77;;
61096;SDS011;46977;50.936;6.908;2022-10-24T14:52:37;7.05;;;0.82;;
61096;SDS011;46977;50.936;6.908;2022-10-24T14:55:47;4.53;;;0.50;;
61096;SDS011;46977;50.936;6.908;2022-10-24T14:58:52;7.68;;;0.63;;
61096;SDS011;46977;50.936;6.908;2022-10-24T15:01:56;6.82;;;0.82;;
61096;SDS011;46977;50.936;6.908;2022-10-24T15:05:14;8.70;;;0.82;;
61096;SDS011;46977;50.936;6.908;2022-10-24T15:08:38;8.80;;;0.90;;
61096;SDS011;46977;50.936;6.908;2022-10-24T15:11:43;6.18;;;1.00;;
61096;SDS011;46977;50.936;6.908;2022-10-24T15:14:48;5.47;;;1.75;;
61096;SDS011;46977;50.936;6.908;2022-10-24T15:17:55;6.25;;;1.73;;
61096;SDS011;46977;50.936;6.908;2022-10-24T15:21:00;6.40;;;0.73;;
61096;SDS011;46977;50.936;6.908;2022-10-24T15:24:04;5.60;;;0.70;;
61096;SDS011;46977;50.936;6.908;2022-10-24T15:27:07;3.92;;;0.55;;
61096;SDS011;46977;50.936;6.908;2022-10-24T15:30:13;7.28;;;0.90;;
61096;SDS011;46977;50.936;6.908;2022-10-24T15:33:17;9.23;;;1.02;;
61096;SDS011;46977;50.936;6.908;2022-10-24T15:36:21;9.00;;;1.00;;
61096;SDS011;46977;50.936;6.908;2022-10-24T15:39:25;4.53;;;1.25;;
61096;SDS011;46977;50.936;6.908;2022-10-24T15:42:28;3.83;;;0.73;;
61096;SDS011;46977;50.936;6.908;2022-10-24T15:45:31;10.70;;;1.58;;
61096;SDS011;46977;50.936;6.908;2022-10-24T15:48:34;7.43;;;0.63;;
61096;SDS011;46977;50.936;6.908;2022-10-24T15:51:36;7.15;;;0.70;;
61096;SDS011;46977;50.936;6.908;2022-10-24T15:54:39;8.80;;;0.90;;
61096;SDS011;46977;50.936;6.908;2022-10-24T15:57:42;9.30;;;0.82;;
61096;SDS011;46977;50.936;6.908;2022-10-24T16:00:47;8.52;;;0.88;;
61096;SDS011;46977;50.936;6.908;2022-10-24T16:03:51;9.18;;;1.63;;
61096;SDS011;46977;50.936;6.908;2022-10-24T16:06:54;9.27;;;1.60;;
61096;SDS011;46977;50.936;6.908;2022-10-24T16:09:56;5.78;;;0.70;;
61096;SDS011;46977;50.936;6.908;2022-10-24T16:13:01;8.23;;;1.20;;
61096;SDS011;46977;50.936;6.908;2022-10-24T16:16:05;6.55;;;0.80;;
61096;SDS011;46977;50.936;6.908;2022-10-24T16:19:08;8.98;;;1.00;;
61096;SDS011;46977;50.936;6.908;2022-10-24T16:22:11;6.78;;;1.10;;
61096;SDS011;46977;50.936;6.908;2022-10-24T16:25:13;6.65;;;1.25;;
61096;SDS011;46977;50.936;6.908;2022-10-24T16:28:17;9.85;;;1.65;;
61096;SDS011;46977;50.936;6.908;2022-10-24T16:31:27;10.65;;;1.10;;
61096;SDS011;46977;50.936;6.908;2022-10-24T16:34:29;7.45;;;0.90;;
61096;SDS011;46977;50.936;6.908;2022-10-24T16:37:31;11.30;;;1.02;;
61096;SDS011;46977;50.936;6.908;2022-10-24T16:40:36;6.32;;;1.08;;
61096;SDS011;46977;50.936;6.908;2022-10-24T16:43:39;9.45;;;1.00;;
61096;SDS011;46977;50.936;6.908;2022-10-24T16:46:46;6.55;;;1.10;;
61096;SDS011;46977;50.936;6.908;2022-10-24T16:49:48;7.38;;;1.20;;
61096;SDS011;46977;50.936;6.908;2022-10-24T16:52:57;14.25;;;1.23;;
61096;SDS011;46977;50.936;6.908;2022-10-24T16:56:01;3.75;;;0.60;;
61096;SDS011;46977;50.936;6.908;2022-10-24T16:59:03;7.95;;;0.70;;
61096;SDS011;46977;50.936;6.908;2022-10-24T17:02:08;8.40;;;1.00;;
61096;SDS011;46977;50.936;6.908;2022-10-24T17:05:11;7.28;;;0.73;;
61096;SDS011;46977;50.936;6.908;2022-10-24T17:08:13;9.35;;;2.13;;
61096;SDS011;46977;50.936;6.908;2022-10-24T17:11:16;8.40;;;1.00;;
61096;SDS011;46977;50.936;6.908;2022-10-24T17:14:38;9.55;;;1.30;;
61096;SDS011;46977;50.936;6.908;2022-10-24T17:17:42;5.97;;;1.10;;
61096;SDS011;46977;50.936;6.908;2022-10-24T17:20:45;15.80;;;4.85;;
61096;SDS011;46977;50.936;6.908;2022-10-24T17:23:50;7.63;;;1.00;;
61096;SDS011;46977;50.936;6.908;2022-10-24T17:26:53;4.70;;;1.00;;
61096;SDS011;46977;50.936;6.908;2022-10-24T17:29:57;7.07;;;1.35;;
61096;SDS011;46977;50.936;6.908;2022-10-24T17:33:01;7.75;;;1.45;;
61096;SDS011;46977;50.936;6.908;2022-10-24T17:36:04;8.02;;;1.10;;
61096;SDS011;46977;50.936;6.908;2022-10-24T17:39:09;7.47;;;0.90;;
61096;SDS011;46977;50.936;6.908;2022-10-24T17:42:14;10.30;;;1.55;;
61096;SDS011;46977;50.936;6.908;2022-10-24T17:45:17;9.80;;;1.17;;
61096;SDS011;46977;50.936;6.908;2022-10-24T17:48:24;8.80;;;1.00;;
61096;SDS011;46977;50.936;6.908;2022-10-24T17:51:26;9.73;;;1.55;;
61096;SDS011;46977;50.936;6.908;2022-10-24T17:54:29;5.10;;;1.15;;
61096;SDS011;46977;50.936;6.908;2022-10-24T17:57:31;9.93;;;1.10;;
61096;SDS011;46977;50.936;6.908;2022-10-24T18:00:33;9.40;;;1.20;;
61096;SDS011;46977;50.936;6.908;2022-10-24T18:03:37;8.45;;;1.23;;
61096;SDS011;46977;50.936;6.908;2022-10-24T18:06:39;7.78;;;1.38;;
61096;SDS011;46977;50.936;6.908;2022-10-24T18:09:44;9.80;;;1.27;;
61096;SDS011;46977;50.936;6.908;2022-10-24T18:12:46;11.35;;;1.40;;
61096;SDS011;46977;50.936;6.908;2022-10-24T18:15:48;13.45;;;1.63;;
61096;SDS011;46977;50.936;6.908;2022-10-24T18:18:53;14.10;;;1.92;;
61096;SDS011;46977;50.936;6.908;2022-10-24T18:21:56;8.23;;;1.00;;
61096;SDS011;46977;50.936;6.908;2022-10-24T18:24:58;14.32;;;2.13;;
61096;SDS011;46977;50.936;6.908;2022-10-24T18:28:00;11.27;;;1.55;;
61096;SDS011;46977;50.936;6.908;2022-10-24T18:31:06;8.32;;;1.38;;
61096;SDS011;46977;50.936;6.908;2022-10-24T18:34:10;10.82;;;1.08;;
61096;SDS011;46977;50.936;6.908;2022-10-24T18:37:13;10.60;;;1.35;;
61096;SDS011;46977;50.936;6.908;2022-10-24T18:40:15;9.90;;;1.65;;
61096;SDS011;46977;50.936;6.908;2022-10-24T18:43:18;13.77;;;1.40;;
61096;SDS011;46977;50.936;6.908;2022-10-24T18:46:21;12.90;;;1.40;;
61096;SDS011;46977;50.936;6.908;2022-10-24T18:49:26;5.22;;;0.80;;
61096;SDS011;46977;50.936;6.908;2022-10-24T18:52:31;9.50;;;1.25;;
61096;SDS011;46977;50.936;6.908;2022-10-24T18:55:39;11.93;;;1.15;;
61096;SDS011;46977;50.936;6.908;2022-10-24T18:58:42;9.63;;;1.40;;
61096;SDS011;46977;50.936;6.908;2022-10-24T19:01:46;8.18;;;0.85;;
61096;SDS011;46977;50.936;6.908;2022-10-24T19:08:04;10.05;;;1.52;;